createdAt,value
2023-01-27T00:01:40.409Z,-1.58
2023-01-27T00:07:03.243Z,-1.53
2023-01-27T00:12:45.940Z,-1.45
2023-01-27T00:18:08.212Z,-1.41
2023-01-27T00:23:49.178Z,-1.40
2023-01-27T00:29:11.604Z,-1.38
2023-01-27T00:34:33.769Z,-1.48
2023-01-27T00:39:55.972Z,-1.54
2023-01-27T00:45:36.944Z,-1.50
2023-01-27T00:51:00.941Z,-1.53
2023-01-27T00:56:22.939Z,-1.51
2023-01-27T01:01:47.291Z,-1.57
2023-01-27T01:07:09.443Z,-1.45
2023-01-27T01:12:31.661Z,-1.38
2023-01-27T01:17:53.518Z,-1.38
2023-01-27T01:23:17.595Z,-1.38
2023-01-27T01:28:40.194Z,-1.47
2023-01-27T01:34:02.235Z,-1.52
2023-01-27T01:39:24.239Z,-1.55
2023-01-27T01:44:46.478Z,-1.61
2023-01-27T01:50:09.319Z,-1.57
2023-01-27T01:55:34.987Z,-1.63
2023-01-27T02:00:56.991Z,-1.50
2023-01-27T02:06:20.228Z,-1.38
2023-01-27T02:11:42.357Z,-1.56
2023-01-27T02:17:06.397Z,-1.51
2023-01-27T02:22:55.414Z,-1.56
2023-01-27T02:28:17.599Z,-1.50
2023-01-27T02:33:40.110Z,-1.47
2023-01-27T02:39:04.032Z,-1.40
2023-01-27T02:44:26.018Z,-1.44
2023-01-27T02:49:50.089Z,-1.43
2023-01-27T02:55:12.826Z,-1.51
2023-01-27T03:00:35.672Z,-1.64
2023-01-27T03:05:57.540Z,-1.58
2023-01-27T03:11:39.640Z,-1.47
2023-01-27T03:17:19.879Z,-1.68
2023-01-27T03:22:42.257Z,-1.56
2023-01-27T03:28:10.640Z,-1.48
2023-01-27T03:33:58.839Z,-1.54
2023-01-27T03:39:43.037Z,-1.58
2023-01-27T03:45:26.000Z,-1.67
2023-01-27T03:50:53.690Z,-1.47
2023-01-27T03:56:17.255Z,-1.46
2023-01-27T04:01:39.347Z,-1.62
2023-01-27T04:07:03.422Z,-1.57
2023-01-27T04:12:28.449Z,-1.63
2023-01-27T04:17:54.430Z,-1.51
2023-01-27T04:23:16.238Z,-1.51
2023-01-27T04:28:44.083Z,-1.60
2023-01-27T04:34:06.978Z,-1.58
2023-01-27T04:39:30.138Z,-1.68
2023-01-27T04:44:52.477Z,-1.57
2023-01-27T04:50:15.269Z,-1.65
2023-01-27T04:55:37.921Z,-1.64
2023-01-27T05:01:00.735Z,-1.45
2023-01-27T05:06:27.510Z,-1.63
2023-01-27T05:11:49.799Z,-1.47
2023-01-27T05:17:12.352Z,-1.53
2023-01-27T05:22:34.954Z,-1.59
2023-01-27T05:27:57.578Z,-1.54
2023-01-27T05:33:25.411Z,-1.55
2023-01-27T05:38:48.539Z,-1.61
2023-01-27T05:44:12.800Z,-1.60
2023-01-27T05:49:37.049Z,-1.56
2023-01-27T05:55:03.738Z,-1.50
2023-01-27T06:00:26.697Z,-1.47
2023-01-27T06:05:53.820Z,-1.47
2023-01-27T06:11:18.658Z,-1.37
2023-01-27T06:16:41.106Z,-1.50
2023-01-27T06:22:03.698Z,-1.43
2023-01-27T06:27:25.933Z,-1.43
2023-01-27T06:32:48.389Z,-1.26
2023-01-27T06:38:16.256Z,-1.30
2023-01-27T06:43:39.242Z,-1.31
2023-01-27T06:49:01.623Z,-1.23
2023-01-27T06:54:24.581Z,-1.20
2023-01-27T06:59:47.267Z,-1.29
2023-01-27T07:05:10.061Z,-1.25
2023-01-27T07:10:32.494Z,-1.17
2023-01-27T07:15:56.844Z,-1.29
2023-01-27T07:21:19.367Z,-1.20
2023-01-27T07:26:45.858Z,-1.36
2023-01-27T07:32:08.385Z,-1.37
2023-01-27T07:37:30.480Z,-1.32
2023-01-27T07:42:59.930Z,-1.34
2023-01-27T07:48:22.967Z,-1.27
2023-01-27T07:53:45.579Z,-1.24
2023-01-27T07:59:07.840Z,-1.06
2023-01-27T08:04:31.597Z,-0.93
2023-01-27T08:09:57.960Z,-0.90
2023-01-27T08:15:20.387Z,-0.87
2023-01-27T08:20:46.069Z,-0.87
2023-01-27T08:26:08.799Z,-0.80
2023-01-27T08:31:30.597Z,-0.72
2023-01-27T08:36:53.078Z,-0.68
2023-01-27T08:42:15.147Z,-0.74
2023-01-27T08:47:37.019Z,-0.60
2023-01-27T08:53:00.269Z,-0.56
2023-01-27T08:58:23.701Z,-0.57
2023-01-27T09:03:49.279Z,-0.39
2023-01-27T09:09:12.450Z,-0.44
2023-01-27T09:14:34.729Z,-0.40
2023-01-27T09:19:56.918Z,-0.37
2023-01-27T09:25:19.354Z,-0.49
2023-01-27T09:30:41.635Z,-0.42
2023-01-27T09:36:10.285Z,-0.54
2023-01-27T09:41:49.520Z,-0.47
2023-01-27T09:47:33.663Z,-0.43
2023-01-27T09:53:23.210Z,-0.31
2023-01-27T09:59:26.018Z,-0.32
2023-01-27T10:04:56.962Z,-0.32
2023-01-27T10:10:31.256Z,-0.27
2023-01-27T10:16:13.858Z,-0.24
2023-01-27T10:22:00.087Z,-0.18
2023-01-27T10:27:24.497Z,-0.20
2023-01-27T10:33:16.579Z,-0.14
2023-01-27T10:38:50.019Z,-0.23
2023-01-27T10:44:36.367Z,-0.20
2023-01-27T10:50:03.839Z,-0.26
2023-01-27T10:55:45.341Z,-0.37
2023-01-27T11:01:21.735Z,-0.33
2023-01-27T11:06:47.175Z,-0.32
2023-01-27T11:12:16.128Z,-0.29
2023-01-27T11:17:46.276Z,-0.19
2023-01-27T11:23:11.707Z,-0.13
2023-01-27T11:29:09.000Z,-0.17
2023-01-27T11:34:39.989Z,-0.20
2023-01-27T11:40:08.702Z,-0.28
2023-01-27T11:45:36.886Z,-0.29
2023-01-27T11:50:59.240Z,-0.40
2023-01-27T11:56:22.102Z,-0.34
2023-01-27T12:01:54.601Z,-0.20
2023-01-27T12:07:23.779Z,-0.26
2023-01-27T12:12:45.846Z,-0.29
2023-01-27T12:18:16.442Z,-0.30
2023-01-27T12:23:48.339Z,-0.34
2023-01-27T12:29:27.946Z,-0.27
2023-01-27T12:34:56.918Z,-0.28
2023-01-27T12:40:29.580Z,-0.35
2023-01-27T12:46:05.557Z,-0.42
2023-01-27T12:51:54.667Z,-0.38
2023-01-27T12:57:22.441Z,-0.34
2023-01-27T13:02:47.738Z,-0.44
2023-01-27T13:08:20.171Z,-0.55
2023-01-27T13:13:54.380Z,-0.52
2023-01-27T13:19:20.142Z,-0.60
2023-01-27T13:24:43.581Z,-0.67
2023-01-27T13:30:26.412Z,-0.58
2023-01-27T13:36:05.183Z,-0.68
2023-01-27T13:41:53.765Z,-0.66
2023-01-27T13:47:30.313Z,-0.65
2023-01-27T13:52:55.946Z,-0.74
2023-01-27T13:58:44.641Z,-0.55
2023-01-27T14:04:17.998Z,-0.56
2023-01-27T14:09:45.632Z,-0.59
2023-01-27T14:15:38.334Z,-0.57
2023-01-27T14:21:40.659Z,-0.58
2023-01-27T14:27:26.185Z,-0.62
2023-01-27T14:32:59.223Z,-0.68
2023-01-27T14:38:40.621Z,-0.64
2023-01-27T14:44:20.844Z,-0.65
2023-01-27T14:50:12.516Z,-0.68
2023-01-27T14:56:10.018Z,-0.70
2023-01-27T15:08:30.807Z,-0.72
2023-01-27T15:15:00.428Z,-0.73
2023-01-27T15:22:01.641Z,-0.74
2023-01-27T15:27:41.251Z,-0.86
2023-01-27T15:41:12.363Z,-0.89
2023-01-27T15:46:58.447Z,-0.89
2023-01-27T15:58:43.085Z,-0.64
2023-01-27T16:04:16.607Z,-0.69
2023-01-27T16:09:46.298Z,-0.63
2023-01-27T16:15:33.362Z,-0.73
2023-01-27T16:21:01.570Z,-0.61
2023-01-27T16:26:31.117Z,-0.65
2023-01-27T16:32:01.238Z,-0.68
2023-01-27T16:37:30.808Z,-0.57
2023-01-27T16:42:58.059Z,-0.55
2023-01-27T16:48:32.298Z,-0.54
2023-01-27T16:53:57.626Z,-0.55
2023-01-27T16:59:23.559Z,-0.64
2023-01-27T17:04:52.614Z,-0.57
2023-01-27T17:10:29.185Z,-0.65
2023-01-27T17:15:57.597Z,-0.79
2023-01-27T17:21:30.326Z,-0.91
2023-01-27T17:27:22.895Z,-0.82
2023-01-27T17:32:50.087Z,-0.61
2023-01-27T17:38:17.308Z,-0.51
2023-01-27T17:43:40.399Z,-0.41
2023-01-27T17:49:09.266Z,-0.42
2023-01-27T17:54:43.806Z,-0.44
2023-01-27T18:00:22.160Z,-0.45
2023-01-27T18:05:46.432Z,-0.40
2023-01-27T18:11:12.450Z,-0.51
2023-01-27T18:16:34.725Z,-0.48
2023-01-27T18:22:18.365Z,-0.45
2023-01-27T18:27:41.056Z,-0.52
2023-01-27T18:33:06.674Z,-0.44
2023-01-27T18:38:33.275Z,-0.51
2023-01-27T18:44:00.392Z,-0.42
2023-01-27T18:49:24.528Z,-0.44
2023-01-27T18:54:51.880Z,-0.38
2023-01-27T19:00:21.757Z,-0.36
2023-01-27T19:05:43.829Z,-0.50
2023-01-27T19:11:05.896Z,-0.53
2023-01-27T19:16:28.276Z,-0.40
2023-01-27T19:21:50.026Z,-0.48
2023-01-27T19:27:20.457Z,-0.43
2023-01-27T19:32:46.148Z,-0.36
2023-01-27T19:38:13.134Z,-0.34
2023-01-27T19:43:35.140Z,-0.39
2023-01-27T19:48:57.336Z,-0.40
2023-01-27T19:54:19.779Z,-0.38
2023-01-27T19:59:41.815Z,-0.34
2023-01-27T20:05:03.976Z,-0.28
2023-01-27T20:10:33.053Z,-0.29
2023-01-27T20:15:58.057Z,-0.37
2023-01-27T20:21:25.718Z,-0.29
2023-01-27T20:26:48.151Z,-0.32
2023-01-27T20:32:10.332Z,-0.14
2023-01-27T20:37:32.383Z,-0.38
2023-01-27T20:42:54.713Z,-0.26
2023-01-27T20:48:18.155Z,-0.40
2023-01-27T20:53:48.226Z,-0.40
2023-01-27T20:59:10.794Z,-0.33
2023-01-27T21:04:32.948Z,-0.40
2023-01-27T21:09:55.757Z,-0.39
2023-01-27T21:15:18.088Z,-0.37
2023-01-27T21:20:40.266Z,-0.44
2023-01-27T21:26:10.026Z,-0.57
2023-01-27T21:31:34.250Z,-0.84
2023-01-27T21:36:56.495Z,-1.00
2023-01-27T21:42:39.067Z,-1.11
2023-01-27T21:48:01.356Z,-1.19
2023-01-27T21:53:24.103Z,-1.28
2023-01-27T21:58:46.414Z,-1.50
2023-01-27T22:04:08.806Z,-1.47
2023-01-27T22:09:30.855Z,-1.46
2023-01-27T22:14:53.096Z,-1.62
2023-01-27T22:20:18.863Z,-1.61
2023-01-27T22:25:40.843Z,-1.74
2023-01-27T22:31:02.954Z,-1.89
2023-01-27T22:36:25.334Z,-2.08
2023-01-27T22:41:47.647Z,-2.12
2023-01-27T22:47:09.666Z,-2.20
2023-01-27T22:52:31.622Z,-2.29
2023-01-27T22:57:53.608Z,-2.54
2023-01-27T23:03:15.859Z,-2.39
2023-01-27T23:08:38.454Z,-2.53
2023-01-27T23:14:03.385Z,-2.66
2023-01-27T23:19:25.799Z,-2.86
2023-01-27T23:24:48.165Z,-2.74
2023-01-27T23:30:12.002Z,-2.97
2023-01-27T23:35:35.046Z,-2.92
2023-01-27T23:41:06.464Z,-2.92
2023-01-27T23:46:28.849Z,-3.10
2023-01-27T23:51:51.744Z,-3.13
2023-01-27T23:57:14.516Z,-3.16
